createdAt,value
2022-12-06T00:01:46.188Z,443.13
2022-12-06T00:04:18.159Z,671.43
2022-12-06T00:09:29.171Z,99.87
2022-12-06T00:11:57.491Z,30.83
2022-12-06T00:14:25.457Z,31.33
2022-12-06T00:16:52.960Z,41.13
2022-12-06T00:19:22.574Z,38.17
2022-12-06T00:21:50.478Z,25.40
2022-12-06T00:24:19.599Z,31.07
2022-12-06T00:29:43.519Z,33.00
2022-12-06T00:32:14.792Z,36.30
2022-12-06T00:34:46.544Z,27.60
2022-12-06T00:37:14.482Z,31.30
2022-12-06T00:39:42.290Z,25.87
2022-12-06T00:42:09.819Z,25.20
2022-12-06T00:44:37.119Z,25.43
2022-12-06T00:52:40.569Z,28.93
2022-12-06T00:55:09.020Z,60.60
2022-12-06T00:57:36.239Z,33.57
2022-12-06T01:00:04.043Z,34.57
2022-12-06T01:02:32.102Z,55.17
2022-12-06T01:04:59.351Z,65.27
2022-12-06T01:07:26.922Z,81.10
2022-12-06T01:17:36.687Z,45.03
2022-12-06T01:20:05.571Z,79.23
2022-12-06T01:22:33.524Z,44.63
2022-12-06T01:25:01.020Z,30.60
2022-12-06T01:27:28.610Z,38.93
2022-12-06T01:29:56.597Z,87.97
2022-12-06T01:32:26.562Z,47.57
2022-12-06T01:40:48.211Z,32.73
2022-12-06T01:43:33.872Z,30.33
2022-12-06T01:46:07.055Z,26.23
2022-12-06T01:48:35.779Z,37.40
2022-12-06T01:51:04.439Z,24.87
2022-12-06T01:53:32.780Z,27.50
2022-12-06T01:56:04.322Z,26.43
2022-12-06T02:05:42.355Z,48.03
2022-12-06T02:08:09.965Z,120.33
2022-12-06T02:10:37.612Z,226.80
2022-12-06T02:13:06.602Z,112.80
2022-12-06T02:15:48.400Z,51.33
2022-12-06T02:18:21.971Z,48.57
2022-12-06T02:20:54.447Z,30.17
2022-12-06T02:26:28.920Z,254.17
2022-12-06T02:29:44.391Z,123.57
2022-12-06T02:32:17.659Z,272.37
2022-12-06T02:34:51.440Z,810.77
2022-12-06T02:37:24.334Z,159.30
2022-12-06T02:39:56.468Z,306.87
2022-12-06T02:47:34.012Z,533.80
2022-12-06T02:50:05.366Z,659.67
2022-12-06T02:52:35.032Z,174.53
2022-12-06T02:55:03.609Z,449.80
2022-12-06T02:57:40.021Z,758.30
2022-12-06T03:00:33.912Z,664.60
2022-12-06T03:03:23.330Z,370.67
2022-12-06T03:06:32.922Z,123.07
2022-12-06T03:14:03.448Z,432.57
2022-12-06T03:16:34.802Z,180.73
2022-12-06T03:19:06.682Z,100.07
2022-12-06T03:21:40.049Z,560.97
2022-12-06T03:24:11.632Z,486.87
2022-12-06T03:26:39.687Z,169.83
2022-12-06T03:29:10.931Z,709.30
2022-12-06T03:36:47.122Z,599.27
2022-12-06T03:39:20.703Z,369.77
2022-12-06T03:41:53.172Z,576.30
2022-12-06T03:44:21.951Z,273.00
2022-12-06T03:46:53.139Z,256.60
2022-12-06T03:49:26.521Z,306.23
2022-12-06T03:51:55.533Z,404.17
2022-12-06T03:59:30.060Z,553.27
2022-12-06T04:01:57.872Z,107.30
2022-12-06T04:04:25.576Z,526.37
2022-12-06T04:06:53.508Z,621.47
2022-12-06T04:09:40.458Z,748.30
2022-12-06T04:12:28.909Z,547.57
2022-12-06T04:14:57.981Z,520.10
2022-12-06T04:17:43.028Z,659.77
2022-12-06T04:26:01.267Z,807.33
2022-12-06T04:28:46.433Z,526.80
2022-12-06T04:31:32.614Z,613.17
2022-12-06T04:34:17.815Z,535.13
2022-12-06T04:37:03.330Z,708.00
2022-12-06T04:39:31.229Z,246.03
2022-12-06T04:42:17.137Z,626.80
2022-12-06T04:47:39.592Z,426.43
2022-12-06T04:50:08.226Z,694.57
2022-12-06T04:52:36.529Z,484.40
2022-12-06T04:55:04.890Z,598.90
2022-12-06T04:57:32.628Z,870.07
2022-12-06T05:00:00.980Z,754.67
2022-12-06T05:02:28.649Z,765.93
2022-12-06T05:10:16.786Z,744.43
2022-12-06T05:12:44.615Z,770.37
2022-12-06T05:15:28.944Z,743.67
2022-12-06T05:17:59.698Z,84.97
2022-12-06T05:20:27.457Z,910.73
2022-12-06T05:22:55.027Z,607.93
2022-12-06T05:25:26.078Z,861.00
2022-12-06T05:27:58.147Z,764.57
2022-12-06T05:35:26.948Z,464.53
2022-12-06T05:37:55.227Z,596.30
2022-12-06T05:40:22.622Z,479.93
2022-12-06T05:42:51.646Z,432.37
2022-12-06T05:45:19.578Z,367.77
2022-12-06T05:47:47.153Z,869.30
2022-12-06T05:50:15.243Z,563.07
2022-12-06T06:00:56.297Z,816.27
2022-12-06T06:03:23.986Z,691.20
2022-12-06T06:05:58.766Z,607.40
2022-12-06T06:08:27.057Z,875.07
2022-12-06T06:10:55.229Z,363.20
2022-12-06T06:13:22.846Z,489.90
2022-12-06T06:15:50.913Z,527.70
2022-12-06T06:25:54.248Z,771.07
2022-12-06T06:28:23.094Z,470.57
2022-12-06T06:30:51.016Z,658.23
2022-12-06T06:33:18.625Z,705.90
2022-12-06T06:35:46.645Z,455.30
2022-12-06T06:38:16.015Z,195.00
2022-12-06T06:40:44.018Z,845.57
2022-12-06T06:46:08.650Z,1042.27
2022-12-06T06:48:38.515Z,464.47
2022-12-06T06:51:07.977Z,595.50
2022-12-06T06:53:38.766Z,832.50
2022-12-06T06:56:07.887Z,511.30
2022-12-06T06:58:35.286Z,605.07
2022-12-06T07:01:04.999Z,359.97
2022-12-06T07:03:36.394Z,458.53
2022-12-06T07:11:13.298Z,29.00
2022-12-06T07:13:46.908Z,21.27
2022-12-06T07:16:18.650Z,16.63
2022-12-06T07:18:47.095Z,22.50
2022-12-06T07:21:15.900Z,22.23
2022-12-06T07:23:44.875Z,58.80
2022-12-06T07:26:15.607Z,57.20
2022-12-06T07:28:45.039Z,191.07
2022-12-06T07:33:55.065Z,516.07
2022-12-06T07:36:23.595Z,268.33
2022-12-06T07:38:53.664Z,50.80
2022-12-06T07:41:41.223Z,434.80
2022-12-06T07:44:29.761Z,67.07
2022-12-06T07:46:57.792Z,202.77
2022-12-06T07:49:26.318Z,359.63
2022-12-06T07:56:58.600Z,21.00
2022-12-06T07:59:26.511Z,180.10
2022-12-06T08:01:54.712Z,291.80
2022-12-06T08:04:23.088Z,447.10
2022-12-06T08:06:50.664Z,368.40
2022-12-06T08:09:19.230Z,457.40
2022-12-06T08:11:47.801Z,167.93
2022-12-06T08:14:16.409Z,688.93
2022-12-06T08:21:48.681Z,659.87
2022-12-06T08:24:16.397Z,720.07
2022-12-06T08:26:44.059Z,447.43
2022-12-06T08:29:11.365Z,332.20
2022-12-06T08:31:39.691Z,169.90
2022-12-06T08:34:07.130Z,705.50
2022-12-06T08:36:34.862Z,641.37
2022-12-06T08:39:02.951Z,311.70
2022-12-06T08:41:47.913Z,350.17
2022-12-06T08:49:21.340Z,691.43
2022-12-06T08:51:48.841Z,711.07
2022-12-06T08:54:18.335Z,682.90
2022-12-06T08:56:45.809Z,102.77
2022-12-06T08:59:13.750Z,279.20
2022-12-06T09:01:41.101Z,287.17
2022-12-06T09:04:10.839Z,385.30
2022-12-06T09:06:41.598Z,517.60
2022-12-06T09:14:21.099Z,370.80
2022-12-06T09:16:50.078Z,237.30
2022-12-06T09:19:17.869Z,218.63
2022-12-06T09:21:46.010Z,55.63
2022-12-06T09:24:16.002Z,422.77
2022-12-06T09:26:43.638Z,36.43
2022-12-06T09:29:12.874Z,28.63
2022-12-06T09:34:58.788Z,51.97
2022-12-06T09:37:26.611Z,34.83
2022-12-06T09:39:59.231Z,21.90
2022-12-06T09:42:43.091Z,85.57
2022-12-06T09:45:40.940Z,437.70
2022-12-06T09:48:44.265Z,176.60
2022-12-06T09:51:29.572Z,20.63
2022-12-06T09:59:16.559Z,214.90
2022-12-06T10:02:04.953Z,107.57
2022-12-06T10:04:58.495Z,69.03
2022-12-06T10:07:31.817Z,19.60
2022-12-06T10:10:13.303Z,329.73
2022-12-06T10:12:53.838Z,81.20
2022-12-06T10:15:32.999Z,34.60
2022-12-06T10:23:18.467Z,29.20
2022-12-06T10:25:58.520Z,40.33
2022-12-06T10:28:37.049Z,142.50
2022-12-06T10:31:17.060Z,29.87
2022-12-06T10:33:53.020Z,26.77
2022-12-06T10:36:34.408Z,21.07
2022-12-06T10:39:10.278Z,43.23
2022-12-06T10:44:38.043Z,22.93
2022-12-06T10:47:12.327Z,36.17
2022-12-06T10:49:51.973Z,29.97
2022-12-06T10:52:35.122Z,35.73
2022-12-06T10:55:17.788Z,17.33
2022-12-06T10:57:52.753Z,17.57
2022-12-06T11:00:24.042Z,18.47
2022-12-06T11:02:59.960Z,15.80
2022-12-06T11:10:37.241Z,16.70
2022-12-06T11:13:17.160Z,17.30
2022-12-06T11:15:51.523Z,16.53
2022-12-06T11:18:20.432Z,18.77
2022-12-06T11:20:56.278Z,16.00
2022-12-06T11:23:30.136Z,18.03
2022-12-06T11:26:10.549Z,18.23
2022-12-06T11:33:52.270Z,17.47
2022-12-06T11:36:24.171Z,18.93
2022-12-06T11:38:52.810Z,12.03
2022-12-06T11:41:26.428Z,17.53
2022-12-06T11:43:59.510Z,17.70
2022-12-06T11:46:29.893Z,15.20
2022-12-06T11:49:05.038Z,16.50
2022-12-06T11:56:39.326Z,18.93
2022-12-06T11:59:26.652Z,19.53
2022-12-06T12:01:56.388Z,17.43
2022-12-06T12:04:35.069Z,16.90
2022-12-06T12:07:12.238Z,16.00
2022-12-06T12:09:52.755Z,18.30
2022-12-06T12:12:24.450Z,20.23
2022-12-06T12:23:05.375Z,23.93
2022-12-06T12:25:34.681Z,23.87
2022-12-06T12:28:04.438Z,22.03
2022-12-06T12:30:36.082Z,20.57
2022-12-06T12:33:23.201Z,27.27
2022-12-06T12:36:08.948Z,24.43
2022-12-06T12:38:42.205Z,17.93
2022-12-06T12:41:28.011Z,18.73
2022-12-06T12:46:59.288Z,20.80
2022-12-06T12:49:31.048Z,19.20
2022-12-06T12:51:59.511Z,20.27
2022-12-06T12:54:31.320Z,22.53
2022-12-06T12:57:00.735Z,20.63
2022-12-06T12:59:36.091Z,20.30
2022-12-06T13:02:14.356Z,28.13
2022-12-06T13:09:57.140Z,12.87
2022-12-06T13:12:30.925Z,18.30
2022-12-06T13:15:04.782Z,19.40
2022-12-06T13:17:34.508Z,17.83
2022-12-06T13:20:02.944Z,16.33
2022-12-06T13:22:37.149Z,19.97
2022-12-06T13:25:08.110Z,16.80
2022-12-06T13:32:51.149Z,20.90
2022-12-06T13:35:26.660Z,18.13
2022-12-06T13:37:55.878Z,21.03
2022-12-06T13:40:48.340Z,16.77
2022-12-06T13:43:56.662Z,18.33
2022-12-06T13:46:37.695Z,18.53
2022-12-06T13:49:25.581Z,24.10
2022-12-06T13:57:02.138Z,20.37
2022-12-06T13:59:39.915Z,17.47
2022-12-06T14:02:50.632Z,25.83
2022-12-06T14:08:24.457Z,21.67
2022-12-06T14:10:52.859Z,27.30
2022-12-06T14:13:22.354Z,28.63
2022-12-06T14:21:39.631Z,22.33
2022-12-06T14:24:08.710Z,23.33
2022-12-06T14:26:42.291Z,22.27
2022-12-06T14:29:22.948Z,19.90
2022-12-06T14:31:53.230Z,22.67
2022-12-06T14:34:26.771Z,24.37
2022-12-06T14:36:57.225Z,25.47
2022-12-06T14:44:31.693Z,37.17
2022-12-06T14:46:59.728Z,29.93
2022-12-06T14:49:46.630Z,36.53
2022-12-06T14:52:25.662Z,30.40
2022-12-06T14:54:54.000Z,34.03
2022-12-06T14:57:44.200Z,34.27
2022-12-06T15:00:26.466Z,34.63
2022-12-06T15:03:23.992Z,29.40
2022-12-06T15:10:57.680Z,33.20
2022-12-06T15:13:25.841Z,29.87
2022-12-06T15:16:05.123Z,30.10
2022-12-06T15:18:36.370Z,33.60
2022-12-06T15:21:07.760Z,35.07
2022-12-06T15:23:42.270Z,26.40
2022-12-06T15:26:14.548Z,31.23
2022-12-06T15:33:51.729Z,35.13
2022-12-06T15:36:22.339Z,29.23
2022-12-06T15:38:51.779Z,28.93
2022-12-06T15:41:21.519Z,31.00
2022-12-06T15:43:54.729Z,25.47
2022-12-06T15:46:29.190Z,22.47
2022-12-06T15:49:01.239Z,32.20
2022-12-06T15:54:18.741Z,28.00
2022-12-06T15:56:48.848Z,36.03
2022-12-06T15:59:17.979Z,29.07
2022-12-06T16:01:48.793Z,38.00
2022-12-06T16:04:17.638Z,29.07
2022-12-06T16:06:47.234Z,27.60
2022-12-06T16:09:17.818Z,44.60
2022-12-06T16:12:00.788Z,45.57
2022-12-06T16:19:50.858Z,32.67
2022-12-06T16:22:18.529Z,34.43
2022-12-06T16:24:53.911Z,31.43
2022-12-06T16:27:25.968Z,38.00
2022-12-06T16:29:58.142Z,23.50
2022-12-06T16:32:28.699Z,33.97
2022-12-06T16:35:02.238Z,25.37
2022-12-06T16:45:29.630Z,37.13
2022-12-06T16:47:58.694Z,38.43
2022-12-06T16:50:27.532Z,31.23
2022-12-06T16:52:57.668Z,34.70
2022-12-06T16:55:43.413Z,33.70
2022-12-06T16:58:17.138Z,32.23
2022-12-06T17:00:48.691Z,32.17
2022-12-06T17:03:17.390Z,31.20
2022-12-06T17:11:15.381Z,30.23
2022-12-06T17:13:48.071Z,29.83
2022-12-06T17:16:21.302Z,24.80
2022-12-06T17:18:51.283Z,25.97
2022-12-06T17:21:22.810Z,30.57
2022-12-06T17:23:52.080Z,30.83
2022-12-06T17:26:24.638Z,27.33
2022-12-06T17:28:59.048Z,33.27
2022-12-06T17:36:37.887Z,27.40
2022-12-06T17:39:13.471Z,30.97
2022-12-06T17:42:04.712Z,32.03
2022-12-06T17:44:38.008Z,31.90
2022-12-06T17:47:12.130Z,29.60
2022-12-06T17:49:42.200Z,33.90
2022-12-06T17:52:16.323Z,36.43
2022-12-06T17:57:31.568Z,26.93
2022-12-06T18:00:00.710Z,31.00
2022-12-06T18:02:28.736Z,35.50
2022-12-06T18:04:57.591Z,28.13
2022-12-06T18:07:26.505Z,30.77
2022-12-06T18:09:55.481Z,30.07
2022-12-06T18:12:31.821Z,27.13
2022-12-06T18:15:03.129Z,31.90
2022-12-06T18:24:25.565Z,30.37
2022-12-06T18:26:58.160Z,30.83
2022-12-06T18:29:26.132Z,35.00
2022-12-06T18:31:54.123Z,39.00
2022-12-06T18:34:27.993Z,29.60
2022-12-06T18:36:56.148Z,34.00
2022-12-06T18:39:25.729Z,40.27
2022-12-06T18:41:57.060Z,30.50
2022-12-06T18:49:30.960Z,35.43
2022-12-06T18:52:02.025Z,32.93
2022-12-06T18:54:32.690Z,27.90
2022-12-06T18:57:01.690Z,29.33
2022-12-06T18:59:29.861Z,30.47
2022-12-06T19:01:59.377Z,39.37
2022-12-06T19:04:30.218Z,31.40
2022-12-06T19:07:01.976Z,34.67
2022-12-06T19:14:40.180Z,41.73
2022-12-06T19:17:13.437Z,37.30
2022-12-06T19:19:44.113Z,31.07
2022-12-06T19:22:12.989Z,42.07
2022-12-06T19:24:45.922Z,49.10
2022-12-06T19:27:20.401Z,44.23
2022-12-06T19:29:58.984Z,43.23
2022-12-06T19:32:27.820Z,42.30
2022-12-06T19:40:05.403Z,42.43
2022-12-06T19:42:55.810Z,38.03
2022-12-06T19:45:28.269Z,44.13
2022-12-06T19:48:02.090Z,38.30
2022-12-06T19:50:35.940Z,34.33
2022-12-06T19:53:09.668Z,36.53
2022-12-06T19:55:52.078Z,39.73
2022-12-06T20:06:18.981Z,34.03
2022-12-06T20:08:51.031Z,38.00
2022-12-06T20:11:41.889Z,33.63
2022-12-06T20:14:13.628Z,47.13
2022-12-06T20:16:45.293Z,53.13
2022-12-06T20:19:17.928Z,42.93
2022-12-06T20:21:49.692Z,46.90
2022-12-06T20:32:20.931Z,64.10
2022-12-06T20:34:57.697Z,53.53
2022-12-06T20:37:37.573Z,58.80
2022-12-06T20:40:10.102Z,71.37
2022-12-06T20:42:41.842Z,72.20
2022-12-06T20:45:12.154Z,75.10
2022-12-06T20:47:47.605Z,114.70
2022-12-06T20:56:32.729Z,211.93
2022-12-06T20:59:05.609Z,818.87
2022-12-06T21:01:45.988Z,534.60
2022-12-06T21:04:16.811Z,665.27
2022-12-06T21:06:45.613Z,670.53
2022-12-06T21:09:14.163Z,664.80
2022-12-06T21:11:43.708Z,700.50
2022-12-06T21:18:40.081Z,749.37
2022-12-06T21:21:10.902Z,788.07
2022-12-06T21:23:40.920Z,770.10
2022-12-06T21:26:10.295Z,630.57
2022-12-06T21:28:38.321Z,662.40
2022-12-06T21:31:06.732Z,330.07
2022-12-06T21:33:35.558Z,923.07
2022-12-06T21:41:12.111Z,607.40
2022-12-06T21:43:42.368Z,598.97
2022-12-06T21:46:13.451Z,625.83
2022-12-06T21:48:46.799Z,673.73
2022-12-06T21:51:16.882Z,786.67
2022-12-06T21:53:45.700Z,835.57
2022-12-06T21:56:17.128Z,694.90
2022-12-06T22:06:28.081Z,981.87
2022-12-06T22:08:59.873Z,791.77
2022-12-06T22:11:29.070Z,760.33
2022-12-06T22:13:58.209Z,658.03
2022-12-06T22:16:26.256Z,850.87
2022-12-06T22:18:55.939Z,943.63
2022-12-06T22:21:25.941Z,741.23
2022-12-06T22:23:56.898Z,741.57
2022-12-06T22:31:32.675Z,382.83
2022-12-06T22:34:01.169Z,778.30
2022-12-06T22:36:29.732Z,1004.07
2022-12-06T22:38:59.428Z,838.30
2022-12-06T22:41:27.999Z,819.67
2022-12-06T22:43:57.370Z,646.63
2022-12-06T22:46:27.576Z,707.47
2022-12-06T22:57:01.630Z,603.83
2022-12-06T22:59:29.019Z,648.20
2022-12-06T23:01:56.574Z,711.87
2022-12-06T23:04:23.998Z,720.63
2022-12-06T23:06:51.527Z,430.67
2022-12-06T23:09:19.619Z,627.10
2022-12-06T23:11:48.918Z,341.00
2022-12-06T23:19:21.338Z,579.07
2022-12-06T23:21:48.578Z,631.20
2022-12-06T23:24:15.978Z,190.10
2022-12-06T23:26:46.571Z,212.13
2022-12-06T23:29:17.331Z,186.17
2022-12-06T23:31:45.707Z,179.40
2022-12-06T23:34:16.321Z,177.23
2022-12-06T23:44:32.652Z,256.83
2022-12-06T23:47:00.278Z,687.57
2022-12-06T23:49:28.022Z,339.53
2022-12-06T23:51:55.401Z,667.20
2022-12-06T23:54:22.711Z,165.73
2022-12-06T23:56:50.090Z,183.97
2022-12-06T23:59:17.659Z,331.83
